Hauptseite
METAR-TAF:

METAR-TAF

Flughäfen :

Westerland, Deutschland

Flughafen Sylt

Breite: 54-55N, Länge: 008-21E, Höhe: 16 m

Beobachtung

Neuester Wetterbericht von vor 7 Stunden und 22 Minuten, um 16:50 UTC
Wind 8 kt aus Nord/Nordwest, variierte zwischen West/Nordwest und Nord
Temperatur 15°C
Luftfeuchtigkeit 59%
Luftdruck 1011 hPa
Sichtweite 10 km oder mehr
keine Wolken unter 1500 m und keine Kumulonimbus oder Gewitterwolken

METAR: EDXW 271650Z 34008KT 300V010 CAVOK 15/07 Q1011

Zeit: 02:12 (00:12 UTC)

Prognose

Neuester Wetterbericht von vor 7 Stunden und 12 Minuten, um 17:00 UTC
Gültige Prognose vom 27 um 18 UTC bis 27 um 21 UTC
Wind 6 kt aus Nord/Nordwest
Sichtweite 10 km oder mehr
keine Wolken unter 1500 m und keine Kumulonimbus oder Gewitterwolken
Übergehend zu
vom 27 um 20 UTC bis 27 um 21 UTC
Wind 11 kt aus Ost

TAF: EDXW 271700Z 2718/2721 34006KT CAVOK BECMG 2720/2721 08011KT

Wetterbeobachtungen und Prognosen von mehr als 4000 Flughäfen (METAR und TAF Bericht).

Die verfügbaren Stationen werden durch gelbe und rote Markierungen auf der Karte dargestellt.

Führen Sie die Maus auf sie, um den Namen der Station zu sehen.

Darauf klicken, um die Beobachtung von Wetterbeobachtungen und Prognosen zu sehen.

Um die Karte zu ändern : klicken Sie auf den grünen Tasten mit einem schwarzen Kreuz Zum Vergrößern, auf den grünen Button mit einem Gedankenstrich zu verkleinern, oder auf die grünen Pfeile für benachbarte Karten.


METAR-TAF: